Weather History for Danville, IL

Change the Weather History Date:

Wednesday, May 22, 2013

  Actual Average (KLAF) Record (KLAF)
Temperature  
Mean Temperature 70 °F 64 °F  
Max Temperature 77 °F 75 °F 92 °F (1964)
Min Temperature 64 °F 53 °F 35 °F (1997)
Degree Days  
Heating Degree Days 0 4  
Month to date heating degree days 134  
Since 1 July heating degree days 5624  
Cooling Degree Days 6 3  
Month to date cooling degree days 35  
Year to date cooling degree days 48  
Growing Degree Days 20 (Base 50)    
Moisture  
Dew Point 61 °F    
Average Humidity 73    
Maximum Humidity 90    
Minimum Humidity 46    
Precipitation  
Precipitation 0.00 in 0.14 in 1.64 in (1955)
Month to date precipitation 2.93  
Year to date precipitation 12.76  
Sea Level Pressure  
Sea Level Pressure 29.71 in    
Wind  
Wind Speed 12 mph (SW)    
Max Wind Speed 21 mph    
Max Gust Speed 38 mph    
Visibility 9 miles    
Events Rain    
T = Trace of Precipitation, MM = Missing Value Source: NWS Daily Summary

Daily Weather History Graph

Daily Weather History Graph

Search for Another Location

Airport:

Trip Planner

Search our weather history database for the weather conditions in past years. The results will help you decide how hot, cold, wet, or windy it might be!

Date:

Astronomy

May. 22, 2013 Rise Set
Actual Time 5:28 AM CDT 8:06 PM CDT
Civil Twilight 4:57 AM CDT 8:37 PM CDT
Nautical Twilight 4:17 AM CDT 9:16 PM CDT
Astronomical Twilight 3:33 AM CDT 10:01 PM CDT
Moon 5:27 PM CDT (5/22) 3:32 AM CDT (5/22)
Length of Visible Light 15h 40m
Length of Day
14h 37m
Waxing Gibbous, 91% of the Moon is Illuminated
May 22
Waxing Gibbous
May 24
Full
May 31
Last Quarter
Jun 8
New
Jun 16
First Quarter

Hourly Weather History & Observations

Time (CDT) Temp. Dew Point Humidity Pressure Visibility Wind Dir Wind Speed Gust Speed Precip Events Conditions
12:15 AM 71.6 °F 65.7 °F 81% 29.71 in 7.0 mi South 8.1 mph - N/A Rain Rain
12:35 AM 71.6 °F 65.5 °F 81% 29.71 in 7.0 mi South 9.2 mph - N/A Rain Rain
12:55 AM 71.4 °F 65.3 °F 81% 29.71 in 7.0 mi South 9.2 mph - N/A Rain Heavy Rain
1:15 AM 71.2 °F 64.8 °F 80% 29.71 in 7.0 mi South 11.5 mph - N/A Rain Rain
1:35 AM 70.7 °F 64.0 °F 79% 29.70 in 7.0 mi SSW 11.5 mph - N/A Rain Rain
1:55 AM 70.3 °F 63.7 °F 79% 29.70 in 7.0 mi SSW 15.0 mph 21.9 mph N/A Rain Rain
2:15 AM 69.8 °F 63.7 °F 81% 29.69 in 10.0 mi South 9.2 mph - N/A Rain Rain
2:35 AM 69.8 °F 63.9 °F 81% 29.69 in 10.0 mi South 10.4 mph 13.8 mph N/A Rain Rain
2:55 AM 69.3 °F 64.0 °F 83% 29.69 in 10.0 mi South 10.4 mph 18.4 mph N/A Rain Rain
3:15 AM 68.9 °F 64.0 °F 84% 29.69 in 10.0 mi South 12.7 mph - N/A Rain Light Rain
3:35 AM 68.9 °F 63.7 °F 83% 29.69 in 10.0 mi SSW 15.0 mph - N/A Rain Light Rain
3:55 AM 68.9 °F 63.7 °F 83% 29.70 in 10.0 mi SSW 10.4 mph - N/A   Overcast
4:15 AM 68.5 °F 63.7 °F 84% 29.69 in 10.0 mi SSW 13.8 mph - N/A   Overcast
4:35 AM 68.4 °F 63.7 °F 85% 29.70 in 10.0 mi SSW 12.7 mph 18.4 mph N/A   Overcast
4:55 AM 68.2 °F 63.3 °F 84% 29.69 in 10.0 mi SW 12.7 mph - N/A   Overcast
5:15 AM 68.2 °F 63.0 °F 83% 29.69 in 10.0 mi SW 13.8 mph - N/A   Overcast
5:35 AM 67.6 °F 63.5 °F 87% 29.69 in 10.0 mi SSW 12.7 mph - N/A Rain Light Rain
5:55 AM 67.1 °F 63.7 °F 89% 29.70 in 7.0 mi SSW 11.5 mph - N/A Rain Light Rain
6:15 AM 66.7 °F 63.7 °F 90% 29.70 in 7.0 mi SSW 12.7 mph 18.4 mph N/A Rain Light Rain
6:35 AM 66.9 °F 63.5 °F 89% 29.70 in 10.0 mi SSW 12.7 mph - N/A   Mostly Cloudy
6:55 AM 67.3 °F 63.5 °F 88% 29.68 in 10.0 mi South 10.4 mph - N/A   Scattered Clouds
7:15 AM 67.6 °F 63.5 °F 87% 29.67 in 10.0 mi South 8.1 mph - N/A   Clear
7:35 AM 68.0 °F 63.9 °F 87% 29.65 in 10.0 mi SSE 5.8 mph - N/A   Clear
7:55 AM 68.7 °F 64.0 °F 85% 29.65 in 10.0 mi SSE 11.5 mph - N/A   Clear
8:15 AM 70.0 °F 64.0 °F 81% 29.68 in 10.0 mi SSW 16.1 mph - N/A   Scattered Clouds
8:35 AM 71.2 °F 63.5 °F 76% 29.69 in 10.0 mi SSW 15.0 mph 19.6 mph N/A   Scattered Clouds
8:55 AM 71.2 °F 62.6 °F 74% 29.69 in 10.0 mi SSW 16.1 mph 21.9 mph N/A   Mostly Cloudy
9:15 AM 72.3 °F 61.7 °F 69% 29.70 in 10.0 mi SSW 20.7 mph - N/A   Mostly Cloudy
9:35 AM 72.3 °F 61.2 °F 68% 29.69 in 10.0 mi SSW 15.0 mph 24.2 mph N/A   Mostly Cloudy
9:55 AM 72.5 °F 60.8 °F 67% 29.69 in 7.0 mi SSW 17.3 mph 27.6 mph N/A   Mostly Cloudy
10:15 AM 72.5 °F 60.6 °F 66% 29.70 in 10.0 mi SSW 18.4 mph 24.2 mph N/A   Mostly Cloudy
10:35 AM 73.8 °F 59.9 °F 62% 29.69 in 7.0 mi SSW 15.0 mph 25.3 mph N/A   Mostly Cloudy
10:55 AM 72.9 °F 59.9 °F 64% 29.70 in 7.0 mi SSW 16.1 mph 20.7 mph N/A   Mostly Cloudy
11:15 AM 73.6 °F 59.7 °F 62% 29.69 in 7.0 mi SW 17.3 mph 21.9 mph N/A   Mostly Cloudy
11:35 AM 75.4 °F 59.4 °F 57% 29.70 in 7.0 mi SW 16.1 mph 20.7 mph N/A   Scattered Clouds
11:55 AM 75.2 °F 59.4 °F 58% 29.70 in 7.0 mi SSW 17.3 mph 23.0 mph N/A   Scattered Clouds
12:15 PM 76.1 °F 59.4 °F 56% 29.70 in 7.0 mi SW 19.6 mph 27.6 mph N/A   Scattered Clouds
12:35 PM 76.3 °F 59.7 °F 56% 29.69 in 7.0 mi SW 15.0 mph 19.6 mph N/A   Scattered Clouds
12:55 PM 77.2 °F 60.1 °F 55% 29.69 in 7.0 mi SW 18.4 mph 25.3 mph N/A   Scattered Clouds
1:15 PM 69.1 °F 60.8 °F 75% 29.71 in 5.0 mi WSW 20.7 mph 38.0 mph N/A Rain Heavy Rain
1:35 PM 65.3 °F 61.9 °F 89% 29.72 in 7.0 mi WSW 11.5 mph - N/A Rain Rain
1:55 PM 67.6 °F 63.5 °F 87% 29.72 in 10.0 mi WSW 9.2 mph - N/A Rain Rain
2:15 PM 70.3 °F 64.8 °F 82% 29.72 in 7.0 mi WSW 9.2 mph - N/A Rain Rain
2:35 PM 72.3 °F 63.9 °F 75% 29.72 in 10.0 mi WSW 10.4 mph - N/A Rain Rain
2:55 PM 74.5 °F 60.1 °F 61% 29.71 in 10.0 mi WSW 11.5 mph 18.4 mph N/A Rain Rain
3:15 PM 76.3 °F 57.7 °F 53% 29.71 in 10.0 mi WSW 15.0 mph 19.6 mph N/A Rain Rain
3:35 PM 75.6 °F 55.4 °F 49% 29.70 in 10.0 mi WSW 13.8 mph 21.9 mph N/A Rain Rain
3:55 PM 76.3 °F 55.4 °F 48% 29.69 in 10.0 mi WSW 13.8 mph 18.4 mph N/A Rain Rain
4:15 PM 77.0 °F 55.8 °F 48% 29.69 in 10.0 mi WSW 9.2 mph - N/A Rain Rain
4:35 PM 77.0 °F 54.5 °F 46% 29.68 in 7.0 mi West 20.7 mph 25.3 mph N/A Rain Rain
4:55 PM 74.7 °F 54.5 °F 49% 29.69 in 7.0 mi West 16.1 mph 25.3 mph N/A Rain Rain
5:15 PM 73.8 °F 55.4 °F 53% 29.70 in 5.0 mi West 19.6 mph 25.3 mph N/A Rain Rain
5:35 PM 74.1 °F 55.4 °F 52% 29.70 in 7.0 mi WSW 15.0 mph 20.7 mph N/A Rain Rain
5:55 PM 73.4 °F 55.9 °F 54% 29.70 in 7.0 mi WSW 17.3 mph 24.2 mph N/A Rain Rain
6:15 PM 72.3 °F 55.6 °F 56% 29.70 in 10.0 mi WSW 15.0 mph 24.2 mph N/A Rain Rain
6:35 PM 71.6 °F 55.4 °F 57% 29.70 in 10.0 mi SW 12.7 mph 20.7 mph N/A Rain Rain
6:55 PM 71.2 °F 56.5 °F 60% 29.71 in 10.0 mi SW 12.7 mph 17.3 mph N/A Rain Light Rain
7:15 PM 70.7 °F 56.3 °F 60% 29.71 in 7.0 mi SW 12.7 mph - N/A Rain Rain
7:35 PM 69.4 °F 56.5 °F 63% 29.72 in 7.0 mi WSW 9.2 mph - N/A Rain Rain
7:55 PM 69.1 °F 57.0 °F 65% 29.73 in 7.0 mi WSW 5.8 mph - N/A Rain Rain
8:15 PM 68.0 °F 59.2 °F 73% 29.74 in 10.0 mi West 15.0 mph - N/A Rain Rain
8:35 PM 64.9 °F 59.9 °F 84% 29.74 in 10.0 mi WSW 6.9 mph - N/A Rain Light Rain
8:55 PM 64.4 °F 60.8 °F 88% 29.75 in 10.0 mi WSW 6.9 mph - N/A Rain Rain
9:15 PM 64.4 °F 61.2 °F 89% 29.76 in 10.0 mi West 6.9 mph - N/A Rain Rain
9:35 PM 64.9 °F 60.8 °F 86% 29.77 in 10.0 mi West 6.9 mph - N/A Rain Rain
9:55 PM 64.9 °F 59.9 °F 84% 29.77 in 10.0 mi West 6.9 mph - N/A Rain Rain
10:15 PM 64.6 °F 59.9 °F 85% 29.78 in 10.0 mi WSW 4.6 mph - N/A Rain Rain
10:35 PM 64.4 °F 60.1 °F 86% 29.78 in 10.0 mi WSW 5.8 mph - N/A Rain Rain
10:55 PM 64.6 °F 59.2 °F 83% 29.78 in 10.0 mi WSW 5.8 mph - N/A Rain Rain
11:15 PM 64.4 °F 58.8 °F 82% 29.79 in 10.0 mi WSW 8.1 mph - N/A Rain Rain
11:35 PM 64.4 °F 58.3 °F 80% 29.79 in 10.0 mi West 9.2 mph - N/A Rain Light Rain
11:55 PM 64.2 °F 57.6 °F 79% 29.79 in 10.0 mi West 9.2 mph - N/A   Overcast